RYR4708 EBCI-LEMH
Flight info
| Callsign | RYR4708 |
|---|---|
| Flight time | N/A |
| Altitude | 35000 |
| Route | CIV7X/06 MEDIL UN872 KOVIN UM728 KETEX DCT DEGOL DCT KANIG N855 BGR L16 SARGO |
| Aircraft | B38M/M-SDE1FGHILORVWXY/HB1 |
Departure
| Time | N/A |
|---|---|
| Airport | Brussels South Charleroi Airport (EBCI) |
Arrival
| Time | 2026-04-24 21:41 |
|---|---|
| Airport | Menorca Airport (LEMH) |
| Time | Latitude | Longitude | Altitude | Speed | Heading |
|---|---|---|---|---|---|
| 2026-04-24 20:25 | 47.57372 | 2.42756 | 35123 ft | 463 kts | 176° |
| 2026-04-24 20:25 | 47.54164 | 2.43140 | 35121 ft | 463 kts | 177° |
| 2026-04-24 20:25 | 47.47745 | 2.43909 | 35123 ft | 462 kts | 177° |
| 2026-04-24 20:26 | 47.41316 | 2.44676 | 35121 ft | 462 kts | 177° |
| 2026-04-24 20:26 | 47.34938 | 2.45436 | 35099 ft | 462 kts | 178° |
| 2026-04-24 20:27 | 47.28548 | 2.46194 | 35112 ft | 460 kts | 178° |
| 2026-04-24 20:27 | 47.22159 | 2.46951 | 35115 ft | 460 kts | 178° |
| 2026-04-24 20:28 | 47.15784 | 2.47704 | 35131 ft | 460 kts | 178° |
| 2026-04-24 20:28 | 47.09415 | 2.48455 | 35110 ft | 457 kts | 179° |
| 2026-04-24 20:29 | 47.03072 | 2.49201 | 35111 ft | 457 kts | 179° |
| 2026-04-24 20:29 | 46.96725 | 2.49946 | 35110 ft | 457 kts | 179° |
| 2026-04-24 20:30 | 46.90386 | 2.50688 | 35104 ft | 455 kts | 179° |
| 2026-04-24 20:30 | 46.84069 | 2.51426 | 35110 ft | 455 kts | 179° |
| 2026-04-24 20:31 | 46.77758 | 2.52161 | 35106 ft | 455 kts | 179° |
| 2026-04-24 20:31 | 46.71483 | 2.52890 | 35103 ft | 455 kts | 179° |
| 2026-04-24 20:32 | 46.65176 | 2.53621 | 35107 ft | 455 kts | 179° |
| 2026-04-24 20:32 | 46.58866 | 2.54351 | 35111 ft | 455 kts | 179° |
| 2026-04-24 20:33 | 46.52564 | 2.55078 | 35091 ft | 454 kts | 179° |
| 2026-04-24 20:33 | 46.46284 | 2.55802 | 35103 ft | 452 kts | 179° |
| 2026-04-24 20:34 | 46.40004 | 2.56523 | 35106 ft | 452 kts | 179° |
| 2026-04-24 20:34 | 46.33731 | 2.57242 | 35096 ft | 452 kts | 179° |
| 2026-04-24 20:35 | 46.27465 | 2.57959 | 35102 ft | 451 kts | 179° |
| 2026-04-24 20:35 | 46.21256 | 2.58667 | 35109 ft | 451 kts | 179° |
| 2026-04-24 20:36 | 46.14992 | 2.59380 | 35105 ft | 450 kts | 179° |
| 2026-04-24 20:36 | 46.08754 | 2.60089 | 35112 ft | 448 kts | 179° |
| 2026-04-24 20:37 | 46.02547 | 2.60792 | 35112 ft | 447 kts | 179° |
| 2026-04-24 20:37 | 45.96328 | 2.61495 | 35111 ft | 448 kts | 179° |
| 2026-04-24 20:38 | 45.90164 | 2.62191 | 35112 ft | 447 kts | 179° |
| 2026-04-24 20:38 | 45.83963 | 2.62889 | 35120 ft | 446 kts | 179° |
| 2026-04-24 20:39 | 45.77765 | 2.63584 | 35120 ft | 446 kts | 179° |
| 2026-04-24 20:39 | 45.71563 | 2.64280 | 35122 ft | 446 kts | 179° |
| 2026-04-24 20:40 | 45.65384 | 2.64971 | 35121 ft | 445 kts | 179° |
| 2026-04-24 20:40 | 45.59205 | 2.65660 | 35127 ft | 445 kts | 179° |
| 2026-04-24 20:41 | 45.53027 | 2.66348 | 35125 ft | 445 kts | 178° |
| 2026-04-24 20:41 | 45.46859 | 2.67033 | 35131 ft | 445 kts | 178° |
| 2026-04-24 20:42 | 45.40724 | 2.67713 | 35143 ft | 444 kts | 178° |
| 2026-04-24 20:42 | 45.34556 | 2.68395 | 35135 ft | 445 kts | 178° |
| 2026-04-24 20:43 | 45.28384 | 2.69076 | 35129 ft | 444 kts | 178° |
| 2026-04-24 20:43 | 45.22219 | 2.69755 | 35139 ft | 444 kts | 178° |
| 2026-04-24 20:44 | 45.16042 | 2.70433 | 35147 ft | 445 kts | 178° |
| 2026-04-24 20:44 | 45.09868 | 2.71110 | 35139 ft | 444 kts | 178° |
| 2026-04-24 20:45 | 45.03751 | 2.71779 | 35143 ft | 444 kts | 178° |
| 2026-04-24 20:45 | 44.97582 | 2.72452 | 35152 ft | 444 kts | 178° |
| 2026-04-24 20:46 | 44.91421 | 2.73123 | 35151 ft | 444 kts | 178° |
| 2026-04-24 20:46 | 44.85252 | 2.73794 | 35148 ft | 444 kts | 178° |
| 2026-04-24 20:47 | 44.79092 | 2.74462 | 35146 ft | 444 kts | 178° |
| 2026-04-24 20:47 | 44.72970 | 2.75124 | 35150 ft | 444 kts | 178° |
| 2026-04-24 20:48 | 44.66815 | 2.75789 | 35153 ft | 444 kts | 178° |
| 2026-04-24 20:48 | 44.60661 | 2.76452 | 35154 ft | 444 kts | 178° |
| 2026-04-24 20:49 | 44.54498 | 2.77115 | 35151 ft | 444 kts | 177° |
| 2026-04-24 20:49 | 44.48323 | 2.77778 | 35158 ft | 444 kts | 177° |
| 2026-04-24 20:50 | 44.42166 | 2.78437 | 35154 ft | 444 kts | 177° |
| 2026-04-24 20:50 | 44.36002 | 2.79095 | 35151 ft | 444 kts | 177° |
| 2026-04-24 20:51 | 44.29837 | 2.79749 | 35157 ft | 444 kts | 177° |
| 2026-04-24 20:51 | 44.23671 | 2.80409 | 35161 ft | 444 kts | 177° |
| 2026-04-24 20:52 | 44.17531 | 2.81062 | 35159 ft | 444 kts | 177° |
| 2026-04-24 20:52 | 44.11362 | 2.81715 | 35163 ft | 445 kts | 177° |
| 2026-04-24 20:53 | 44.05187 | 2.82368 | 35158 ft | 445 kts | 177° |
| 2026-04-24 20:53 | 43.99009 | 2.83020 | 35153 ft | 445 kts | 176° |
| 2026-04-24 20:54 | 43.92842 | 2.83670 | 35157 ft | 445 kts | 176° |
| 2026-04-24 20:54 | 43.86664 | 2.84319 | 35155 ft | 445 kts | 176° |
| 2026-04-24 20:55 | 43.80478 | 2.84968 | 35154 ft | 445 kts | 176° |
| 2026-04-24 20:55 | 43.74301 | 2.85604 | 35155 ft | 446 kts | 176° |
| 2026-04-24 20:56 | 43.68110 | 2.86239 | 35152 ft | 446 kts | 176° |
| 2026-04-24 20:56 | 43.61929 | 2.86873 | 35147 ft | 446 kts | 176° |
| 2026-04-24 20:57 | 43.55737 | 2.87506 | 35149 ft | 446 kts | 176° |
| 2026-04-24 20:57 | 43.49588 | 2.88133 | 35146 ft | 446 kts | 176° |
| 2026-04-24 20:58 | 43.43391 | 2.88764 | 35142 ft | 446 kts | 176° |
| 2026-04-24 20:58 | 43.37194 | 2.89395 | 35135 ft | 446 kts | 176° |
| 2026-04-24 20:59 | 43.30991 | 2.90024 | 35139 ft | 447 kts | 176° |
| 2026-04-24 20:59 | 43.24791 | 2.90651 | 35132 ft | 446 kts | 176° |
| 2026-04-24 21:00 | 43.18593 | 2.91277 | 35131 ft | 446 kts | 176° |
| 2026-04-24 21:00 | 43.12429 | 2.91899 | 35137 ft | 447 kts | 176° |
| 2026-04-24 21:01 | 43.06228 | 2.92523 | 35128 ft | 447 kts | 176° |
| 2026-04-24 21:01 | 43.00017 | 2.93146 | 35130 ft | 446 kts | 176° |
| 2026-04-24 21:02 | 42.93813 | 2.93768 | 35128 ft | 447 kts | 176° |
| 2026-04-24 21:02 | 42.87599 | 2.94389 | 35130 ft | 447 kts | 176° |
| 2026-04-24 21:03 | 42.81388 | 2.95009 | 35128 ft | 447 kts | 176° |
| 2026-04-24 21:03 | 42.75223 | 2.95623 | 35130 ft | 447 kts | 176° |
| 2026-04-24 21:04 | 42.69014 | 2.96240 | 35130 ft | 447 kts | 176° |
| 2026-04-24 21:04 | 42.62807 | 2.96856 | 35130 ft | 447 kts | 176° |
| 2026-04-24 21:05 | 42.56605 | 2.97471 | 35128 ft | 447 kts | 176° |
| 2026-04-24 21:05 | 42.50395 | 2.98084 | 35129 ft | 447 kts | 176° |
| 2026-04-24 21:06 | 42.47318 | 2.98662 | 35113 ft | 446 kts | 163° |
| 2026-04-24 21:06 | 42.44405 | 2.99937 | 35139 ft | 447 kts | 162° |
| 2026-04-24 21:06 | 42.38416 | 3.02431 | 35131 ft | 447 kts | 162° |
| 2026-04-24 21:07 | 42.32474 | 3.04951 | 35128 ft | 447 kts | 162° |
| 2026-04-24 21:07 | 42.27519 | 3.07057 | 35135 ft | 451 kts | 162° |
| 2026-04-24 21:08 | 42.21529 | 3.09597 | 35134 ft | 451 kts | 162° |
| 2026-04-24 21:08 | 42.14562 | 3.12546 | 35130 ft | 451 kts | 162° |
| 2026-04-24 21:09 | 42.09573 | 3.14653 | 35134 ft | 451 kts | 162° |
| 2026-04-24 21:09 | 42.03584 | 3.17179 | 35133 ft | 451 kts | 162° |
| 2026-04-24 21:10 | 41.97582 | 3.19705 | 35137 ft | 451 kts | 162° |
| 2026-04-24 21:10 | 41.91825 | 3.22946 | 35149 ft | 450 kts | 151° |
| 2026-04-24 21:11 | 41.86239 | 3.26844 | 35138 ft | 451 kts | 152° |
| 2026-04-24 21:11 | 41.80678 | 3.30716 | 35143 ft | 452 kts | 152° |
| 2026-04-24 21:12 | 41.75130 | 3.34573 | 35139 ft | 451 kts | 152° |
| 2026-04-24 21:12 | 41.69556 | 3.38440 | 35146 ft | 451 kts | 152° |
| 2026-04-24 21:13 | 41.64024 | 3.42270 | 34978 ft | 439 kts | 152° |
| 2026-04-24 21:13 | 41.61321 | 3.44139 | 34524 ft | 436 kts | 152° |
| 2026-04-24 21:13 | 41.58624 | 3.46003 | 33958 ft | 435 kts | 152° |
| 2026-04-24 21:14 | 41.55929 | 3.47862 | 33380 ft | 434 kts | 152° |
| 2026-04-24 21:14 | 41.53257 | 3.49705 | 32852 ft | 432 kts | 152° |
| 2026-04-24 21:14 | 41.50594 | 3.51539 | 32371 ft | 428 kts | 152° |
| 2026-04-24 21:14 | 41.47958 | 3.53353 | 31942 ft | 424 kts | 152° |
| 2026-04-24 21:15 | 41.45341 | 3.55153 | 31495 ft | 421 kts | 152° |
| 2026-04-24 21:15 | 41.42743 | 3.56938 | 31026 ft | 419 kts | 152° |
| 2026-04-24 21:15 | 41.40158 | 3.58712 | 30565 ft | 417 kts | 152° |
| 2026-04-24 21:15 | 41.37579 | 3.60481 | 30085 ft | 416 kts | 152° |
| 2026-04-24 21:16 | 41.35016 | 3.62237 | 29572 ft | 413 kts | 152° |
| 2026-04-24 21:16 | 41.32471 | 3.63979 | 29113 ft | 410 kts | 152° |
| 2026-04-24 21:16 | 41.29945 | 3.65706 | 28688 ft | 406 kts | 152° |
| 2026-04-24 21:16 | 41.27437 | 3.67420 | 28259 ft | 403 kts | 152° |
| 2026-04-24 21:17 | 41.24948 | 3.69119 | 27827 ft | 400 kts | 152° |
| 2026-04-24 21:17 | 41.22514 | 3.70780 | 27424 ft | 397 kts | 152° |
| 2026-04-24 21:17 | 41.20061 | 3.72452 | 27004 ft | 395 kts | 152° |
| 2026-04-24 21:17 | 41.17621 | 3.74114 | 26593 ft | 393 kts | 152° |
| 2026-04-24 21:18 | 41.15178 | 3.75710 | 26172 ft | 391 kts | 159° |
| 2026-04-24 21:18 | 41.12565 | 3.76704 | 25723 ft | 390 kts | 165° |
| 2026-04-24 21:18 | 41.09952 | 3.77640 | 25354 ft | 387 kts | 164° |
| 2026-04-24 21:18 | 41.07363 | 3.78579 | 24963 ft | 385 kts | 164° |
| 2026-04-24 21:19 | 41.04781 | 3.79516 | 24572 ft | 384 kts | 165° |
| 2026-04-24 21:19 | 41.02203 | 3.80450 | 24185 ft | 383 kts | 164° |
| 2026-04-24 21:19 | 40.99635 | 3.81379 | 23745 ft | 384 kts | 164° |
| 2026-04-24 21:19 | 40.97061 | 3.82309 | 23330 ft | 381 kts | 164° |
| 2026-04-24 21:20 | 40.92111 | 3.84096 | 23229 ft | 356 kts | 164° |
| 2026-04-24 21:20 | 40.89762 | 3.84943 | 23181 ft | 344 kts | 164° |
| 2026-04-24 21:20 | 40.87488 | 3.85762 | 23141 ft | 347 kts | 164° |
| 2026-04-24 21:21 | 40.85117 | 3.86616 | 23090 ft | 357 kts | 164° |
| 2026-04-24 21:21 | 40.82701 | 3.87485 | 23048 ft | 363 kts | 165° |
| 2026-04-24 21:21 | 40.80225 | 3.88375 | 22909 ft | 364 kts | 165° |
| 2026-04-24 21:21 | 40.77817 | 3.89240 | 22585 ft | 363 kts | 165° |
| 2026-04-24 21:22 | 40.75386 | 3.90113 | 22191 ft | 362 kts | 165° |
| 2026-04-24 21:22 | 40.72962 | 3.90983 | 21824 ft | 359 kts | 165° |
| 2026-04-24 21:22 | 40.70554 | 3.91846 | 21476 ft | 357 kts | 165° |
| 2026-04-24 21:22 | 40.68160 | 3.92703 | 21112 ft | 354 kts | 165° |
| 2026-04-24 21:23 | 40.65790 | 3.93551 | 20759 ft | 352 kts | 165° |
| 2026-04-24 21:23 | 40.63428 | 3.94396 | 20411 ft | 350 kts | 165° |
| 2026-04-24 21:23 | 40.61079 | 3.95235 | 20059 ft | 348 kts | 165° |
| 2026-04-24 21:23 | 40.58746 | 3.96069 | 19711 ft | 347 kts | 165° |
| 2026-04-24 21:24 | 40.56419 | 3.96899 | 19362 ft | 345 kts | 165° |
| 2026-04-24 21:24 | 40.54137 | 3.97713 | 19019 ft | 344 kts | 165° |
| 2026-04-24 21:24 | 40.51836 | 3.98533 | 18674 ft | 342 kts | 165° |
| 2026-04-24 21:24 | 40.49534 | 3.99353 | 18253 ft | 343 kts | 165° |
| 2026-04-24 21:25 | 40.47236 | 4.00171 | 17858 ft | 341 kts | 165° |
| 2026-04-24 21:25 | 40.44948 | 4.00985 | 17516 ft | 339 kts | 164° |
| 2026-04-24 21:25 | 40.42683 | 4.01790 | 17170 ft | 336 kts | 164° |
| 2026-04-24 21:25 | 40.40427 | 4.02591 | 16825 ft | 334 kts | 164° |
| 2026-04-24 21:26 | 40.38195 | 4.03383 | 16483 ft | 331 kts | 164° |
| 2026-04-24 21:26 | 40.35970 | 4.04172 | 16145 ft | 329 kts | 164° |
| 2026-04-24 21:26 | 40.33765 | 4.04954 | 15804 ft | 327 kts | 164° |
| 2026-04-24 21:26 | 40.31600 | 4.05721 | 15472 ft | 325 kts | 164° |
| 2026-04-24 21:27 | 40.29421 | 4.06493 | 15143 ft | 324 kts | 164° |
| 2026-04-24 21:27 | 40.27250 | 4.07260 | 14798 ft | 322 kts | 164° |
| 2026-04-24 21:27 | 40.25092 | 4.08023 | 14480 ft | 321 kts | 164° |
| 2026-04-24 21:27 | 40.22943 | 4.08783 | 14150 ft | 319 kts | 164° |
| 2026-04-24 21:28 | 40.20795 | 4.09541 | 13790 ft | 318 kts | 163° |
| 2026-04-24 21:28 | 40.18664 | 4.10293 | 13426 ft | 317 kts | 164° |
| 2026-04-24 21:28 | 40.16543 | 4.11040 | 13089 ft | 315 kts | 164° |
| 2026-04-24 21:28 | 40.14419 | 4.11715 | 12745 ft | 313 kts | 171° |
| 2026-04-24 21:29 | 40.12248 | 4.11817 | 12400 ft | 312 kts | 185° |
| 2026-04-24 21:29 | 40.10131 | 4.11291 | 12114 ft | 309 kts | 197° |
| 2026-04-24 21:29 | 40.08146 | 4.10236 | 11807 ft | 306 kts | 208° |
| 2026-04-24 21:29 | 40.06372 | 4.08729 | 11493 ft | 303 kts | 220° |
| 2026-04-24 21:30 | 40.04884 | 4.06856 | 11180 ft | 300 kts | 231° |
| 2026-04-24 21:30 | 40.03658 | 4.04624 | 10862 ft | 298 kts | 237° |
| 2026-04-24 21:30 | 40.02355 | 4.02527 | 10553 ft | 297 kts | 227° |
| 2026-04-24 21:30 | 40.00891 | 4.00679 | 10284 ft | 295 kts | 222° |
| 2026-04-24 21:31 | 39.99296 | 3.98982 | 10090 ft | 290 kts | 217° |
| 2026-04-24 21:31 | 39.97656 | 3.97534 | 9777 ft | 289 kts | 211° |
| 2026-04-24 21:31 | 39.95895 | 3.96273 | 9436 ft | 288 kts | 206° |
| 2026-04-24 21:31 | 39.94060 | 3.95240 | 9119 ft | 287 kts | 201° |
| 2026-04-24 21:32 | 39.92169 | 3.94431 | 8798 ft | 285 kts | 195° |
| 2026-04-24 21:32 | 39.90243 | 3.93854 | 8504 ft | 283 kts | 190° |
| 2026-04-24 21:32 | 39.88298 | 3.93509 | 8177 ft | 282 kts | 184° |
| 2026-04-24 21:32 | 39.86343 | 3.93398 | 7870 ft | 280 kts | 179° |
| 2026-04-24 21:33 | 39.84391 | 3.93515 | 7529 ft | 280 kts | 173° |
| 2026-04-24 21:33 | 39.83114 | 3.93715 | 7316 ft | 279 kts | 170° |
| 2026-04-24 21:33 | 39.80588 | 3.94411 | 6911 ft | 276 kts | 163° |
| 2026-04-24 21:33 | 39.78767 | 3.95176 | 6612 ft | 274 kts | 158° |
| 2026-04-24 21:34 | 39.77016 | 3.96137 | 6239 ft | 273 kts | 153° |
| 2026-04-24 21:34 | 39.75339 | 3.97298 | 5872 ft | 273 kts | 147° |
| 2026-04-24 21:34 | 39.73781 | 3.98619 | 5550 ft | 265 kts | 143° |
| 2026-04-24 21:34 | 39.72359 | 4.00052 | 5255 ft | 252 kts | 139° |
| 2026-04-24 21:35 | 39.71092 | 4.01552 | 4977 ft | 241 kts | 134° |
| 2026-04-24 21:35 | 39.69956 | 4.03120 | 4711 ft | 236 kts | 129° |
| 2026-04-24 21:35 | 39.68930 | 4.04781 | 4446 ft | 235 kts | 125° |
| 2026-04-24 21:35 | 39.68012 | 4.06527 | 4251 ft | 234 kts | 120° |
| 2026-04-24 21:36 | 39.67196 | 4.08350 | 4134 ft | 234 kts | 117° |
| 2026-04-24 21:36 | 39.66491 | 4.10244 | 4063 ft | 233 kts | 112° |
| 2026-04-24 21:36 | 39.65897 | 4.12196 | 3926 ft | 230 kts | 109° |
| 2026-04-24 21:36 | 39.65493 | 4.14168 | 3757 ft | 222 kts | 92° |
| 2026-04-24 21:37 | 39.65785 | 4.16073 | 3598 ft | 217 kts | 62° |
| 2026-04-24 21:37 | 39.66786 | 4.17502 | 3470 ft | 217 kts | 32° |
| 2026-04-24 21:37 | 39.68168 | 4.18288 | 3375 ft | 218 kts | 18° |
| 2026-04-24 21:37 | 39.69642 | 4.18758 | 3143 ft | 218 kts | 12° |
| 2026-04-24 21:38 | 39.71135 | 4.19107 | 2839 ft | 217 kts | 11° |
| 2026-04-24 21:38 | 39.72597 | 4.19402 | 2629 ft | 205 kts | 9° |
| 2026-04-24 21:38 | 39.73954 | 4.19656 | 2442 ft | 194 kts | 9° |
| 2026-04-24 21:38 | 39.75274 | 4.19900 | 2249 ft | 188 kts | 9° |
| 2026-04-24 21:39 | 39.76502 | 4.20122 | 2039 ft | 172 kts | 9° |
| 2026-04-24 21:39 | 39.77659 | 4.20333 | 1831 ft | 169 kts | 10° |
| 2026-04-24 21:39 | 39.78823 | 4.20526 | 1580 ft | 166 kts | 7° |
| 2026-04-24 21:39 | 39.79934 | 4.20653 | 1291 ft | 155 kts | 6° |
| 2026-04-24 21:40 | 39.80983 | 4.20791 | 1093 ft | 151 kts | 8° |
| 2026-04-24 21:40 | 39.82036 | 4.20978 | 889 ft | 154 kts | 11° |
| 2026-04-24 21:40 | 39.83109 | 4.21201 | 683 ft | 156 kts | 11° |
| 2026-04-24 21:40 | 39.84188 | 4.21428 | 482 ft | 154 kts | 11° |
| 2026-04-24 21:41 | 39.85219 | 4.21648 | 317 ft | 150 kts | 11° |
| 2026-04-24 21:41 | 39.86168 | 4.21847 | 306 ft | 119 kts | 9° |
| 2026-04-24 21:41 | 39.86837 | 4.21985 | 305 ft | 76 kts | 9° |
| 2026-04-24 21:41 | 39.87130 | 4.22045 | 307 ft | 30 kts | 9° |
| 2026-04-24 21:42 | 39.87336 | 4.22092 | 313 ft | 30 kts | 20° |
| 2026-04-24 21:42 | 39.87389 | 4.22264 | 314 ft | 20 kts | 103° |
| 2026-04-24 21:42 | 39.87297 | 4.22317 | 313 ft | 19 kts | 191° |
| 2026-04-24 21:42 | 39.87147 | 4.22282 | 308 ft | 22 kts | 188° |
| 2026-04-24 21:43 | 39.86981 | 4.22250 | 305 ft | 15 kts | 188° |
| 2026-04-24 21:43 | 39.86912 | 4.22241 | 302 ft | 7 kts | 191° |
| 2026-04-24 21:43 | 39.86806 | 4.22213 | 302 ft | 25 kts | 192° |
| 2026-04-24 21:43 | 39.86602 | 4.22171 | 297 ft | 18 kts | 188° |
| 2026-04-24 21:44 | 39.86496 | 4.22151 | 297 ft | 22 kts | 189° |
| 2026-04-24 21:44 | 39.86315 | 4.22115 | 296 ft | 29 kts | 189° |
| 2026-04-24 21:44 | 39.86264 | 4.22104 | 297 ft | 0 kts | 188° |
| 2026-04-24 21:45 | 39.86247 | 4.22101 | 296 ft | 8 kts | 189° |
| 2026-04-24 21:45 | 39.86187 | 4.22177 | 293 ft | 22 kts | 97° |
| 2026-04-24 21:46 | 39.86250 | 4.22274 | 292 ft | 16 kts | 3° |